createdAt,value
2022-09-10T00:01:01.918Z,3.45
2022-09-10T00:02:04.704Z,3.78
2022-09-10T00:03:06.543Z,3.42
2022-09-10T00:04:11.330Z,3.13
2022-09-10T00:05:13.382Z,4.07
2022-09-10T00:06:16.613Z,3.28
2022-09-10T00:07:18.604Z,4.15
2022-09-10T00:08:22.705Z,3.33
2022-09-10T00:09:24.286Z,4.05
2022-09-10T00:10:27.041Z,3.10
2022-09-10T00:11:31.025Z,3.42
2022-09-10T00:12:34.538Z,2.85
2022-09-10T00:13:37.193Z,3.50
2022-09-10T00:14:39.802Z,3.72
2022-09-10T00:15:43.584Z,4.60
2022-09-10T00:16:46.170Z,3.65
2022-09-10T00:17:47.813Z,3.42
2022-09-10T00:18:51.122Z,3.20
2022-09-10T00:19:52.801Z,3.97
2022-09-10T00:20:57.238Z,3.97
2022-09-10T00:21:59.426Z,3.70
2022-09-10T00:23:02.023Z,4.40
2022-09-10T00:24:05.474Z,3.90
2022-09-10T00:25:09.004Z,4.38
2022-09-10T00:26:14.786Z,4.57
2022-09-10T00:27:17.330Z,4.05
2022-09-10T00:28:19.286Z,4.30
2022-09-10T00:29:21.801Z,4.05
2022-09-10T00:30:23.341Z,3.88
2022-09-10T00:31:26.564Z,4.20
2022-09-10T00:32:28.130Z,3.95
2022-09-10T00:33:30.747Z,2.60
2022-09-10T00:34:34.210Z,4.00
2022-09-10T00:35:36.115Z,4.57
2022-09-10T00:36:40.754Z,4.13
2022-09-10T00:37:42.310Z,4.60
2022-09-10T00:38:44.842Z,2.53
2022-09-10T00:39:47.814Z,4.30
2022-09-10T00:40:50.631Z,1.73
2022-09-10T00:41:54.670Z,4.20
2022-09-10T00:42:57.422Z,4.45
2022-09-10T00:44:00.523Z,4.55
2022-09-10T00:45:05.286Z,4.10
2022-09-10T00:46:07.054Z,2.97
2022-09-10T00:47:14.012Z,4.15
2022-09-10T00:48:18.462Z,4.15
2022-09-10T00:49:25.899Z,4.15
2022-09-10T00:50:30.489Z,2.35
2022-09-10T00:51:35.690Z,4.15
2022-09-10T00:52:40.074Z,4.25
2022-09-10T00:53:43.247Z,3.90
2022-09-10T00:54:45.219Z,2.45
2022-09-10T00:55:50.521Z,4.15
2022-09-10T00:56:53.191Z,4.40
2022-09-10T00:57:58.392Z,4.43
2022-09-10T00:59:00.743Z,3.20
2022-09-10T01:00:06.844Z,4.05
2022-09-10T01:01:08.510Z,2.95
2022-09-10T01:02:12.042Z,3.10
2022-09-10T01:03:15.803Z,3.90
2022-09-10T01:04:18.343Z,4.22
2022-09-10T01:05:20.024Z,3.90
2022-09-10T01:06:23.963Z,3.42
2022-09-10T01:07:26.550Z,3.50
2022-09-10T01:08:29.566Z,2.60
2022-09-10T01:09:31.127Z,3.53
2022-09-10T01:10:40.592Z,2.72
2022-09-10T01:11:52.538Z,3.33
2022-09-10T01:13:05.518Z,3.92
2022-09-10T01:14:24.254Z,2.90
2022-09-10T01:15:32.347Z,2.25
2022-09-10T01:16:39.190Z,3.75
2022-09-10T01:17:50.522Z,1.83
2022-09-10T01:18:59.788Z,3.03
2022-09-10T01:20:51.102Z,2.80
2022-09-10T01:22:01.677Z,3.00
2022-09-10T01:23:45.225Z,2.80
2022-09-10T01:24:55.683Z,3.15
2022-09-10T01:26:03.957Z,3.50
2022-09-10T01:27:41.604Z,2.10
2022-09-10T01:28:46.486Z,3.13
2022-09-10T01:29:52.773Z,3.55
2022-09-10T01:31:00.836Z,3.60
2022-09-10T01:32:06.916Z,3.30
2022-09-10T01:33:13.875Z,1.70
2022-09-10T01:34:19.160Z,3.03
2022-09-10T01:35:24.859Z,3.50
2022-09-10T01:36:29.240Z,2.90
2022-09-10T01:37:32.734Z,3.10
2022-09-10T01:38:36.010Z,3.35
2022-09-10T01:39:38.788Z,2.15
2022-09-10T01:40:40.498Z,3.20
2022-09-10T01:41:43.454Z,2.83
2022-09-10T01:42:46.438Z,4.25
2022-09-10T01:43:48.931Z,3.30
2022-09-10T01:44:51.825Z,3.92
2022-09-10T01:46:04.162Z,1.85
2022-09-10T01:47:12.822Z,3.03
2022-09-10T01:48:50.597Z,2.25
2022-09-10T01:50:19.771Z,3.00
2022-09-10T01:51:29.574Z,2.97
2022-09-10T01:52:39.902Z,3.17
2022-09-10T01:54:06.682Z,3.30
2022-09-10T01:55:17.116Z,3.10
2022-09-10T01:56:29.453Z,3.70
2022-09-10T01:57:38.356Z,3.05
2022-09-10T01:58:43.970Z,3.58
2022-09-10T01:59:50.768Z,3.15
2022-09-10T02:00:57.218Z,2.05
2022-09-10T02:02:01.429Z,3.38
2022-09-10T02:03:07.646Z,2.42
2022-09-10T02:04:10.452Z,3.33
2022-09-10T02:05:13.725Z,3.72
2022-09-10T02:06:19.035Z,3.85
2022-09-10T02:07:23.426Z,3.20
2022-09-10T02:08:28.532Z,3.58
2022-09-10T02:09:31.350Z,4.00
2022-09-10T02:10:32.941Z,3.92
2022-09-10T02:11:44.777Z,3.58
2022-09-10T02:12:46.366Z,3.38
2022-09-10T02:13:51.158Z,2.95
2022-09-10T02:14:55.212Z,4.32
2022-09-10T02:15:59.332Z,4.32
2022-09-10T02:17:01.559Z,3.70
2022-09-10T02:18:04.218Z,3.75
2022-09-10T02:19:06.093Z,3.67
2022-09-10T02:20:13.506Z,3.58
2022-09-10T02:21:15.781Z,2.42
2022-09-10T02:22:19.173Z,3.00
2022-09-10T02:23:31.700Z,3.08
2022-09-10T02:24:34.270Z,2.50
2022-09-10T02:25:37.382Z,3.80
2022-09-10T02:26:42.302Z,2.90
2022-09-10T02:27:44.519Z,3.00
2022-09-10T02:28:49.606Z,2.33
2022-09-10T02:29:52.624Z,3.13
2022-09-10T02:30:55.145Z,2.63
2022-09-10T02:31:56.764Z,2.50
2022-09-10T02:32:59.406Z,2.08
2022-09-10T02:34:03.121Z,2.45
2022-09-10T02:35:06.482Z,2.67
2022-09-10T02:36:08.320Z,3.00
2022-09-10T02:37:11.080Z,2.95
2022-09-10T02:38:12.615Z,2.58
2022-09-10T02:39:15.141Z,3.08
2022-09-10T02:40:19.415Z,2.70
2022-09-10T02:41:23.955Z,2.70
2022-09-10T02:42:26.948Z,2.47
2022-09-10T02:43:30.682Z,2.95
2022-09-10T02:44:32.253Z,2.20
2022-09-10T02:45:36.559Z,2.03
2022-09-10T02:46:38.298Z,2.50
2022-09-10T02:47:41.202Z,1.95
2022-09-10T02:48:42.776Z,2.42
2022-09-10T02:49:45.755Z,2.38
2022-09-10T02:50:47.272Z,2.10
2022-09-10T02:51:51.602Z,2.22
2022-09-10T02:52:53.738Z,2.70
2022-09-10T02:53:56.541Z,2.17
2022-09-10T02:54:58.093Z,2.15
2022-09-10T02:56:00.994Z,2.50
2022-09-10T02:57:02.592Z,2.55
2022-09-10T02:58:05.142Z,2.13
2022-09-10T02:59:06.712Z,2.40
2022-09-10T03:00:10.671Z,1.92
2022-09-10T03:01:15.503Z,2.47
2022-09-10T03:02:18.345Z,2.55
2022-09-10T03:03:19.959Z,2.05
2022-09-10T03:04:22.533Z,2.00
2022-09-10T03:05:24.376Z,2.67
2022-09-10T03:06:28.082Z,2.30
2022-09-10T03:07:29.681Z,2.13
2022-09-10T03:08:32.664Z,2.40
2022-09-10T03:09:35.617Z,2.42
2022-09-10T03:10:39.425Z,2.75
2022-09-10T03:11:41.729Z,2.35
2022-09-10T03:12:45.589Z,2.60
2022-09-10T03:13:47.875Z,2.55
2022-09-10T03:14:50.373Z,2.42
2022-09-10T03:15:52.812Z,1.90
2022-09-10T03:16:56.854Z,2.30
2022-09-10T03:17:58.476Z,2.35
2022-09-10T03:19:01.010Z,2.55
2022-09-10T03:20:03.486Z,2.42
2022-09-10T03:21:10.795Z,2.53
2022-09-10T03:22:13.406Z,2.15
2022-09-10T03:23:14.960Z,2.35
2022-09-10T03:24:17.474Z,2.53
2022-09-10T03:25:19.203Z,2.63
2022-09-10T03:26:22.948Z,2.30
2022-09-10T03:27:26.126Z,2.65
2022-09-10T03:28:29.825Z,2.60
2022-09-10T03:29:31.394Z,2.25
2022-09-10T03:30:34.259Z,2.22
2022-09-10T03:31:36.479Z,3.20
2022-09-10T03:32:40.449Z,3.60
2022-09-10T03:33:42.202Z,2.40
2022-09-10T03:34:45.109Z,2.42
2022-09-10T03:35:46.748Z,2.92
2022-09-10T03:36:49.433Z,2.90
2022-09-10T03:37:51.037Z,2.63
2022-09-10T03:38:53.553Z,3.50
2022-09-10T03:39:55.144Z,3.00
2022-09-10T03:40:58.036Z,3.40
2022-09-10T03:41:59.683Z,3.17
2022-09-10T03:43:02.844Z,3.75
2022-09-10T03:44:05.126Z,3.65
2022-09-10T03:45:09.037Z,3.45
2022-09-10T03:46:13.320Z,3.35
2022-09-10T03:47:15.913Z,3.42
2022-09-10T03:48:19.772Z,3.25
2022-09-10T03:49:22.824Z,4.18
2022-09-10T03:50:24.479Z,3.00
2022-09-10T03:51:27.383Z,3.75
2022-09-10T03:52:30.006Z,3.60
2022-09-10T03:53:32.669Z,3.65
2022-09-10T03:54:34.317Z,3.60
2022-09-10T03:55:36.908Z,4.03
2022-09-10T03:56:38.839Z,3.35
2022-09-10T03:57:42.041Z,4.28
2022-09-10T03:58:43.584Z,3.35
2022-09-10T03:59:46.130Z,3.88
2022-09-10T04:00:47.894Z,4.53
2022-09-10T04:01:50.651Z,3.90
2022-09-10T04:02:52.321Z,3.70
2022-09-10T04:03:57.103Z,3.85
2022-09-10T04:04:58.640Z,4.13
2022-09-10T04:06:01.168Z,3.95
2022-09-10T04:07:03.074Z,3.80
2022-09-10T04:08:07.410Z,3.95
2022-09-10T04:09:09.252Z,4.25
2022-09-10T04:10:13.219Z,3.65
2022-09-10T04:11:14.782Z,4.30
2022-09-10T04:12:17.783Z,3.97
2022-09-10T04:13:19.362Z,4.00
2022-09-10T04:14:21.904Z,3.80
2022-09-10T04:15:24.509Z,3.78
2022-09-10T04:16:27.301Z,3.13
2022-09-10T04:17:28.972Z,4.18
2022-09-10T04:18:32.049Z,3.92
2022-09-10T04:19:35.314Z,4.50
2022-09-10T04:20:38.178Z,3.97
2022-09-10T04:21:39.777Z,3.78
2022-09-10T04:22:42.334Z,4.10
2022-09-10T04:23:43.977Z,4.00
2022-09-10T04:24:46.544Z,3.63
2022-09-10T04:25:49.548Z,4.28
2022-09-10T04:26:52.155Z,4.65
2022-09-10T04:27:54.529Z,4.15
2022-09-10T04:28:57.162Z,4.22
2022-09-10T04:29:58.696Z,4.43
2022-09-10T04:31:01.224Z,4.70
2022-09-10T04:32:03.778Z,4.90
2022-09-10T04:33:06.328Z,4.25
2022-09-10T04:34:08.141Z,4.53
2022-09-10T04:35:15.219Z,4.55
2022-09-10T04:36:17.129Z,4.32
2022-09-10T04:37:19.838Z,4.50
2022-09-10T04:38:21.403Z,4.53
2022-09-10T04:39:23.916Z,4.88
2022-09-10T04:40:27.133Z,4.95
2022-09-10T04:41:29.714Z,4.38
2022-09-10T04:42:32.804Z,4.88
2022-09-10T04:43:35.391Z,4.63
2022-09-10T04:44:37.359Z,4.68
2022-09-10T04:45:40.678Z,5.10
2022-09-10T04:46:43.410Z,4.72
2022-09-10T04:47:46.614Z,4.93
2022-09-10T04:48:48.497Z,4.88
2022-09-10T04:49:51.072Z,5.72
2022-09-10T04:51:14.778Z,4.68
2022-09-10T04:52:17.032Z,4.07
2022-09-10T04:53:18.706Z,4.75
2022-09-10T04:54:21.243Z,5.25
2022-09-10T04:55:22.790Z,4.88
2022-09-10T04:56:25.952Z,5.05
2022-09-10T04:57:27.930Z,5.05
2022-09-10T04:58:34.262Z,6.20
2022-09-10T04:59:39.587Z,4.85
2022-09-10T05:00:42.310Z,6.25
2022-09-10T05:01:43.913Z,6.03
2022-09-10T05:02:46.573Z,5.25
2022-09-10T05:03:48.138Z,5.25
2022-09-10T05:04:50.797Z,5.20
2022-09-10T05:05:53.788Z,5.93
2022-09-10T05:06:57.675Z,6.03
2022-09-10T05:08:00.100Z,5.03
2022-09-10T05:09:03.336Z,6.40
2022-09-10T05:10:10.627Z,5.13
2022-09-10T05:11:13.445Z,5.78
2022-09-10T05:12:15.370Z,5.35
2022-09-10T05:13:18.185Z,5.28
2022-09-10T05:14:19.740Z,5.38
2022-09-10T05:15:22.393Z,5.55
2022-09-10T05:16:24.024Z,5.78
2022-09-10T05:17:26.566Z,4.78
2022-09-10T05:18:28.181Z,5.13
2022-09-10T05:19:30.718Z,5.20
2022-09-10T05:20:32.260Z,5.55
2022-09-10T05:21:44.921Z,6.55
2022-09-10T05:22:46.509Z,5.28
2022-09-10T05:23:49.162Z,6.85
2022-09-10T05:24:50.841Z,5.40
2022-09-10T05:25:53.717Z,5.00
2022-09-10T05:26:55.272Z,5.80
2022-09-10T05:27:57.816Z,4.82
2022-09-10T05:29:00.385Z,5.55
2022-09-10T05:30:02.113Z,5.88
2022-09-10T05:31:05.939Z,5.80
2022-09-10T05:32:09.411Z,4.53
2022-09-10T05:33:14.191Z,5.47
2022-09-10T05:34:15.889Z,4.97
2022-09-10T05:35:18.440Z,5.53
2022-09-10T05:36:20.059Z,4.88
2022-09-10T05:37:23.944Z,5.00
2022-09-10T05:38:26.209Z,5.28
2022-09-10T05:39:28.729Z,5.78
2022-09-10T05:40:30.299Z,4.75
2022-09-10T05:41:33.258Z,5.50
2022-09-10T05:42:35.592Z,5.43
2022-09-10T05:43:38.144Z,5.50
2022-09-10T05:44:40.339Z,5.43
2022-09-10T05:45:42.926Z,5.50
2022-09-10T05:46:44.742Z,4.60
2022-09-10T05:47:47.552Z,5.10
2022-09-10T05:48:49.177Z,5.22
2022-09-10T05:49:51.842Z,4.55
2022-09-10T05:50:53.481Z,4.97
2022-09-10T05:51:56.055Z,5.00
2022-09-10T05:53:00.825Z,4.53
2022-09-10T05:54:02.702Z,5.38
2022-09-10T05:55:05.821Z,5.97
2022-09-10T05:56:07.771Z,4.30
2022-09-10T05:57:10.327Z,4.65
2022-09-10T05:58:13.516Z,4.95
2022-09-10T05:59:16.063Z,5.20
2022-09-10T06:00:17.818Z,4.55
2022-09-10T06:01:20.641Z,5.25
2022-09-10T06:02:24.293Z,5.40
2022-09-10T06:03:27.037Z,5.80
2022-09-10T06:04:28.628Z,4.60
2022-09-10T06:05:31.146Z,4.80
2022-09-10T06:06:33.686Z,4.65
2022-09-10T06:07:35.229Z,4.75
2022-09-10T06:08:39.819Z,4.85
2022-09-10T06:09:41.608Z,4.88
2022-09-10T06:10:44.334Z,5.10
2022-09-10T06:11:48.083Z,4.57
2022-09-10T06:12:51.952Z,5.68
2022-09-10T06:13:53.567Z,4.47
2022-09-10T06:14:56.091Z,5.18
2022-09-10T06:15:57.765Z,5.30
2022-09-10T06:17:00.448Z,4.57
2022-09-10T06:18:02.026Z,5.60
2022-09-10T06:19:04.614Z,4.07
2022-09-10T06:20:06.818Z,4.93
2022-09-10T06:21:13.381Z,4.65
2022-09-10T06:22:15.107Z,3.35
2022-09-10T06:23:18.036Z,4.50
2022-09-10T06:24:21.022Z,4.85
2022-09-10T06:25:24.033Z,5.32
2022-09-10T06:26:27.089Z,4.80
2022-09-10T06:27:28.879Z,5.38
2022-09-10T06:28:32.911Z,5.03
2022-09-10T06:29:36.590Z,4.53
2022-09-10T06:30:38.262Z,5.60
2022-09-10T06:31:40.876Z,5.40
2022-09-10T06:32:42.454Z,3.13
2022-09-10T06:33:46.652Z,5.47
2022-09-10T06:34:48.346Z,5.20
2022-09-10T06:35:53.825Z,5.07
2022-09-10T06:36:55.416Z,4.82
2022-09-10T06:37:57.987Z,4.82
2022-09-10T06:38:59.864Z,5.32
2022-09-10T06:40:04.144Z,5.15
2022-09-10T06:41:07.618Z,5.45
2022-09-10T06:42:12.780Z,5.47
2022-09-10T06:43:14.391Z,5.70
2022-09-10T06:44:18.379Z,5.93
2022-09-10T06:45:20.084Z,4.90
2022-09-10T06:47:01.682Z,5.60
2022-09-10T06:49:07.109Z,5.63
2022-09-10T06:50:09.223Z,4.63
2022-09-10T06:51:13.573Z,5.95
2022-09-10T06:52:15.190Z,3.03
2022-09-10T06:53:17.733Z,6.30
2022-09-10T06:54:20.513Z,3.53
2022-09-10T06:55:23.615Z,6.45
2022-09-10T06:56:27.294Z,5.20
2022-09-10T06:57:29.332Z,5.57
2022-09-10T06:58:35.050Z,3.78
2022-09-10T06:59:36.763Z,4.97
2022-09-10T07:00:39.707Z,4.78
2022-09-10T07:01:41.705Z,5.00
2022-09-10T07:02:44.391Z,2.33
2022-09-10T07:03:46.424Z,5.03
2022-09-10T07:04:49.238Z,3.60
2022-09-10T07:05:54.855Z,3.95
2022-09-10T07:06:59.551Z,4.25
2022-09-10T07:08:02.020Z,4.72
2022-09-10T07:09:05.286Z,5.10
2022-09-10T07:10:07.534Z,5.20
2022-09-10T07:11:14.816Z,5.50
2022-09-10T07:12:16.444Z,5.10
2022-09-10T07:13:18.974Z,5.07
2022-09-10T07:14:20.755Z,5.32
2022-09-10T07:15:23.374Z,4.60
2022-09-10T07:16:26.393Z,3.67
2022-09-10T07:17:31.895Z,5.50
2022-09-10T07:18:34.194Z,3.78
2022-09-10T07:19:37.611Z,5.15
2022-09-10T07:20:39.246Z,4.03
2022-09-10T07:21:41.847Z,2.45
2022-09-10T07:22:43.795Z,2.88
2022-09-10T07:23:48.400Z,4.22
2022-09-10T07:24:51.437Z,4.82
2022-09-10T07:25:54.010Z,4.78
2022-09-10T07:27:01.579Z,5.15
2022-09-10T07:28:04.650Z,5.68
2022-09-10T07:29:07.752Z,5.35
2022-09-10T07:30:11.935Z,5.45
2022-09-10T07:31:16.559Z,4.63
2022-09-10T07:32:18.323Z,4.97
2022-09-10T07:33:22.189Z,6.05
2022-09-10T07:34:24.149Z,4.72
2022-09-10T07:35:26.669Z,4.63
2022-09-10T07:36:28.834Z,5.35
2022-09-10T07:37:31.373Z,3.22
2022-09-10T07:38:32.994Z,5.07
2022-09-10T07:39:35.633Z,4.03
2022-09-10T07:40:37.224Z,4.20
2022-09-10T07:41:39.779Z,4.93
2022-09-10T07:42:43.712Z,4.95
2022-09-10T07:43:46.435Z,5.05
2022-09-10T07:44:48.059Z,5.07
2022-09-10T07:45:50.593Z,5.43
2022-09-10T07:46:52.324Z,5.15
2022-09-10T07:47:54.906Z,5.90
2022-09-10T07:48:57.982Z,5.28
2022-09-10T07:50:00.802Z,5.65
2022-09-10T07:51:03.091Z,5.40
2022-09-10T07:52:06.120Z,5.35
2022-09-10T07:53:08.682Z,5.88
2022-09-10T07:54:10.428Z,5.45
2022-09-10T07:55:13.894Z,5.85
2022-09-10T07:56:15.514Z,4.65
2022-09-10T07:57:18.058Z,5.47
2022-09-10T07:58:20.969Z,5.63
2022-09-10T07:59:23.763Z,6.57
2022-09-10T08:00:26.374Z,5.93
2022-09-10T08:01:28.040Z,5.93
2022-09-10T08:02:30.650Z,5.20
2022-09-10T08:03:34.013Z,5.38
2022-09-10T08:04:37.299Z,5.40
2022-09-10T08:05:40.951Z,5.93
2022-09-10T08:06:42.720Z,6.30
2022-09-10T08:07:45.377Z,5.03
2022-09-10T08:08:46.987Z,5.43
2022-09-10T08:09:49.574Z,5.18
2022-09-10T08:10:51.141Z,4.82
2022-09-10T08:11:53.685Z,5.35
2022-09-10T08:12:55.256Z,4.60
2022-09-10T08:14:00.795Z,5.18
2022-09-10T08:15:02.662Z,5.43
2022-09-10T08:16:09.628Z,4.90
2022-09-10T08:17:11.534Z,4.72
2022-09-10T08:18:14.671Z,5.95
2022-09-10T08:19:18.142Z,4.57
2022-09-10T08:20:21.247Z,4.20
2022-09-10T08:21:22.872Z,5.75
2022-09-10T08:22:25.686Z,4.53
2022-09-10T08:23:29.038Z,5.47
2022-09-10T08:24:31.855Z,5.07
2022-09-10T08:25:33.638Z,4.70
2022-09-10T08:26:36.311Z,5.75
2022-09-10T08:27:38.555Z,4.00
2022-09-10T08:28:41.319Z,4.53
2022-09-10T08:29:45.415Z,4.82
2022-09-10T08:30:56.958Z,4.15
2022-09-10T08:31:59.854Z,4.90
2022-09-10T08:33:01.398Z,5.05
2022-09-10T08:34:03.902Z,4.85
2022-09-10T08:35:05.803Z,4.57
2022-09-10T08:36:10.291Z,4.97
2022-09-10T08:37:12.483Z,5.28
2022-09-10T08:38:15.027Z,4.00
2022-09-10T08:39:16.975Z,5.03
2022-09-10T08:40:20.653Z,3.42
2022-09-10T08:41:28.330Z,4.38
2022-09-10T08:42:35.434Z,5.43
2022-09-10T08:43:42.772Z,5.40
2022-09-10T08:44:49.959Z,5.32
2022-09-10T08:45:52.891Z,5.55
2022-09-10T08:46:59.064Z,4.63
2022-09-10T08:48:06.003Z,3.50
2022-09-10T08:49:12.312Z,5.43
2022-09-10T08:50:20.978Z,5.40
2022-09-10T08:51:27.556Z,5.35
2022-09-10T08:52:34.066Z,5.15
2022-09-10T08:53:45.218Z,5.93
2022-09-10T08:54:54.897Z,5.00
2022-09-10T08:56:05.346Z,5.40
2022-09-10T08:57:12.460Z,5.82
2022-09-10T08:58:19.087Z,5.93
2022-09-10T08:59:26.634Z,6.25
2022-09-10T09:00:34.833Z,5.53
2022-09-10T09:01:41.250Z,5.63
2022-09-10T09:02:50.717Z,6.90
2022-09-10T09:03:57.935Z,7.57
2022-09-10T09:05:04.678Z,7.45
2022-09-10T09:06:12.406Z,6.25
2022-09-10T09:07:20.278Z,6.40
2022-09-10T09:08:27.678Z,7.35
2022-09-10T09:09:30.582Z,6.85
2022-09-10T09:10:42.509Z,6.82
2022-09-10T09:11:49.747Z,6.88
2022-09-10T09:13:18.064Z,7.07
2022-09-10T09:14:37.932Z,6.15
2022-09-10T09:15:49.507Z,6.50
2022-09-10T09:17:07.152Z,6.43
2022-09-10T09:18:15.433Z,6.38
2022-09-10T09:19:25.154Z,6.22
2022-09-10T09:20:34.549Z,6.55
2022-09-10T09:21:45.475Z,4.07
2022-09-10T09:22:52.058Z,5.38
2022-09-10T09:24:13.840Z,4.28
2022-09-10T09:25:22.362Z,5.47
2022-09-10T09:26:32.190Z,6.38
2022-09-10T09:27:36.341Z,3.97
2022-09-10T09:28:42.197Z,6.45
2022-09-10T09:29:47.674Z,5.07
2022-09-10T09:30:53.496Z,5.75
2022-09-10T09:31:58.010Z,4.05
2022-09-10T09:33:05.680Z,5.40
2022-09-10T09:34:19.234Z,3.92
2022-09-10T09:35:29.169Z,4.13
2022-09-10T09:36:35.625Z,4.82
2022-09-10T09:37:39.992Z,5.22
2022-09-10T09:38:45.757Z,5.80
2022-09-10T09:39:53.503Z,4.57
2022-09-10T09:40:57.799Z,4.25
2022-09-10T09:42:05.831Z,5.15
2022-09-10T09:43:15.539Z,5.13
2022-09-10T09:44:22.710Z,3.70
2022-09-10T09:45:28.554Z,4.32
2022-09-10T09:46:32.142Z,4.65
2022-09-10T09:47:34.984Z,4.63
2022-09-10T09:48:40.153Z,4.50
2022-09-10T09:49:41.981Z,5.38
2022-09-10T09:50:49.245Z,4.72
2022-09-10T09:51:51.825Z,4.93
2022-09-10T09:52:56.445Z,4.72
2022-09-10T09:54:34.574Z,3.75
2022-09-10T09:55:29.456Z,4.28
2022-09-10T09:56:36.781Z,4.72
2022-09-10T09:57:42.696Z,4.75
2022-09-10T09:58:48.598Z,3.75
2022-09-10T09:59:52.280Z,3.65
2022-09-10T10:00:55.297Z,3.35
2022-09-10T10:02:01.068Z,2.67
2022-09-10T10:03:12.527Z,3.45
2022-09-10T10:04:22.378Z,4.68
2022-09-10T10:05:24.953Z,3.85
2022-09-10T10:06:30.717Z,3.22
2022-09-10T10:07:36.127Z,4.35
2022-09-10T10:08:41.225Z,4.68
2022-09-10T10:09:45.110Z,4.85
2022-09-10T10:10:51.679Z,4.65
2022-09-10T10:11:56.576Z,4.38
2022-09-10T10:12:58.217Z,4.43
2022-09-10T10:14:16.355Z,4.20
2022-09-10T10:15:36.364Z,3.97
2022-09-10T10:16:38.823Z,4.30
2022-09-10T10:17:43.411Z,4.35
2022-09-10T10:18:45.452Z,4.72
2022-09-10T10:19:58.845Z,4.25
2022-09-10T10:21:18.591Z,3.50
2022-09-10T10:22:21.529Z,4.15
2022-09-10T10:23:31.294Z,3.78
2022-09-10T10:24:33.760Z,4.20
2022-09-10T10:25:41.384Z,4.20
2022-09-10T10:26:45.638Z,3.67
2022-09-10T10:27:51.220Z,3.85
2022-09-10T10:28:56.674Z,3.05
2022-09-10T10:30:06.023Z,3.42
2022-09-10T10:31:07.605Z,3.13
2022-09-10T10:32:15.258Z,2.95
2022-09-10T10:33:22.286Z,3.42
2022-09-10T10:34:47.721Z,3.10
2022-09-10T10:35:54.890Z,2.42
2022-09-10T10:37:04.252Z,2.17
2022-09-10T10:38:31.461Z,2.28
2022-09-10T10:39:46.417Z,3.05
2022-09-10T10:40:57.326Z,2.60
2022-09-10T10:42:04.439Z,2.67
2022-09-10T10:43:12.429Z,2.85
2022-09-10T10:44:36.839Z,2.75
2022-09-10T10:45:47.441Z,3.10
2022-09-10T10:46:55.806Z,3.15
2022-09-10T10:48:04.368Z,2.95
2022-09-10T10:49:16.833Z,3.20
2022-09-10T10:50:30.340Z,2.92
2022-09-10T10:51:40.333Z,3.10
2022-09-10T10:52:46.677Z,3.00
2022-09-10T10:54:02.913Z,3.05
2022-09-10T10:55:13.109Z,2.85
2022-09-10T10:56:19.054Z,3.47
2022-09-10T10:57:28.665Z,3.17
2022-09-10T10:58:52.229Z,2.88
2022-09-10T11:00:01.037Z,3.20
2022-09-10T11:01:06.521Z,3.97
2022-09-10T11:02:14.366Z,3.42
2022-09-10T11:03:20.100Z,3.13
2022-09-10T11:04:29.976Z,3.22
2022-09-10T11:05:38.326Z,3.65
2022-09-10T11:06:43.878Z,3.15
2022-09-10T11:07:47.151Z,3.25
2022-09-10T11:08:51.629Z,3.10
2022-09-10T11:09:58.900Z,3.83
2022-09-10T11:11:02.903Z,3.35
2022-09-10T11:12:08.589Z,3.60
2022-09-10T11:13:19.020Z,3.25
2022-09-10T11:14:24.328Z,3.60
2022-09-10T11:15:30.217Z,3.92
2022-09-10T11:16:40.296Z,3.90
2022-09-10T11:17:46.774Z,4.20
2022-09-10T11:18:54.036Z,3.80
2022-09-10T11:20:27.040Z,4.40
2022-09-10T11:21:30.112Z,4.43
2022-09-10T11:22:35.462Z,5.30
2022-09-10T11:23:40.308Z,5.30
2022-09-10T11:24:47.154Z,4.90
2022-09-10T11:25:55.686Z,5.05
2022-09-10T11:27:02.967Z,4.32
2022-09-10T11:28:11.753Z,4.50
2022-09-10T11:29:25.295Z,5.53
2022-09-10T11:30:27.898Z,5.25
2022-09-10T11:31:33.775Z,5.20
2022-09-10T11:32:39.287Z,4.95
2022-09-10T11:33:47.179Z,5.72
2022-09-10T11:34:55.215Z,5.28
2022-09-10T11:36:05.093Z,5.10
2022-09-10T11:37:13.358Z,5.05
2022-09-10T11:38:22.228Z,5.22
2022-09-10T11:39:29.594Z,4.45
2022-09-10T11:40:35.219Z,4.57
2022-09-10T11:41:42.133Z,4.53
2022-09-10T11:42:52.956Z,5.40
2022-09-10T11:44:01.210Z,4.68
2022-09-10T11:45:05.660Z,4.80
2022-09-10T11:46:11.598Z,4.88
2022-09-10T11:47:15.164Z,4.65
2022-09-10T11:48:21.729Z,5.05
2022-09-10T11:49:26.781Z,4.82
2022-09-10T11:50:34.886Z,5.20
2022-09-10T11:51:39.262Z,4.93
2022-09-10T11:52:40.877Z,4.15
2022-09-10T11:53:44.091Z,4.20
2022-09-10T11:54:46.771Z,4.25
2022-09-10T11:56:04.985Z,4.30
2022-09-10T11:57:11.378Z,4.10
2022-09-10T11:58:18.832Z,4.57
2022-09-10T11:59:32.091Z,4.57
2022-09-10T12:00:41.717Z,4.43
2022-09-10T12:01:55.012Z,4.43
2022-09-10T12:03:13.630Z,4.38
2022-09-10T12:04:39.241Z,4.30
2022-09-10T12:05:53.201Z,3.30
2022-09-10T12:07:04.575Z,4.00
2022-09-10T12:08:12.702Z,4.63
2022-09-10T12:09:18.197Z,4.75
2022-09-10T12:10:24.169Z,4.35
2022-09-10T12:11:31.601Z,4.45
2022-09-10T12:12:39.629Z,4.85
2022-09-10T12:13:42.874Z,4.90
2022-09-10T12:14:44.470Z,4.97
2022-09-10T12:15:53.025Z,4.78
2022-09-10T12:16:57.449Z,4.47
2022-09-10T12:18:04.094Z,5.00
2022-09-10T12:19:08.830Z,4.72
2022-09-10T12:20:16.364Z,4.93
2022-09-10T12:21:26.257Z,5.20
2022-09-10T12:22:33.251Z,4.55
2022-09-10T12:23:37.499Z,4.85
2022-09-10T12:24:40.358Z,4.88
2022-09-10T12:25:42.023Z,6.00
2022-09-10T12:26:45.813Z,5.10
2022-09-10T12:27:49.078Z,5.30
2022-09-10T12:29:03.196Z,5.47
2022-09-10T12:31:00.712Z,5.47
2022-09-10T12:32:36.052Z,5.63
2022-09-10T12:34:08.219Z,5.82
2022-09-10T12:35:47.838Z,5.47
2022-09-10T12:37:27.845Z,5.30
2022-09-10T12:38:54.781Z,6.68
2022-09-10T12:40:34.916Z,5.80
2022-09-10T12:42:00.572Z,7.03
2022-09-10T12:43:53.583Z,6.63
2022-09-10T12:44:56.052Z,6.20
2022-09-10T12:46:02.241Z,7.03
2022-09-10T12:47:30.663Z,6.40
2022-09-10T12:48:35.811Z,6.55
2022-09-10T12:49:43.982Z,7.03
2022-09-10T12:50:53.586Z,7.07
2022-09-10T12:51:58.088Z,6.55
2022-09-10T12:53:25.407Z,7.05
2022-09-10T12:54:40.508Z,6.90
2022-09-10T12:55:52.904Z,6.78
2022-09-10T12:57:08.176Z,7.18
2022-09-10T12:58:17.522Z,6.15
2022-09-10T12:59:59.802Z,6.22
2022-09-10T13:01:10.066Z,6.68
2022-09-10T13:02:21.709Z,7.63
2022-09-10T13:03:26.785Z,6.75
2022-09-10T13:04:30.610Z,7.13
2022-09-10T13:05:37.638Z,7.25
2022-09-10T13:06:42.584Z,6.60
2022-09-10T13:07:45.876Z,6.47
2022-09-10T13:08:47.966Z,6.63
2022-09-10T13:09:59.813Z,6.43
2022-09-10T13:11:14.497Z,5.72
2022-09-10T13:12:20.210Z,5.22
2022-09-10T13:13:33.496Z,5.85
2022-09-10T13:14:39.626Z,5.30
2022-09-10T13:15:49.859Z,5.50
2022-09-10T13:16:52.602Z,5.22
2022-09-10T13:18:23.642Z,4.72
2022-09-10T13:19:48.786Z,5.25
2022-09-10T13:20:50.350Z,4.68
2022-09-10T13:21:54.752Z,4.70
2022-09-10T13:22:58.139Z,4.70
2022-09-10T13:24:00.652Z,4.60
2022-09-10T13:25:23.869Z,4.40
2022-09-10T13:26:48.771Z,4.80
2022-09-10T13:27:50.309Z,4.18
2022-09-10T13:29:07.245Z,4.63
2022-09-10T13:30:17.420Z,4.57
2022-09-10T13:31:24.237Z,4.32
2022-09-10T13:32:28.930Z,4.28
2022-09-10T13:33:34.137Z,4.70
2022-09-10T13:35:04.263Z,4.80
2022-09-10T13:36:14.495Z,4.30
2022-09-10T13:37:46.612Z,5.22
2022-09-10T13:39:12.204Z,5.28
2022-09-10T13:40:43.243Z,4.97
2022-09-10T13:42:08.775Z,4.88
2022-09-10T13:43:24.404Z,5.50
2022-09-10T13:44:35.812Z,5.93
2022-09-10T13:45:39.701Z,4.63
2022-09-10T13:46:43.151Z,5.53
2022-09-10T13:47:48.329Z,5.32
2022-09-10T13:48:53.621Z,5.35
2022-09-10T13:49:59.280Z,5.85
2022-09-10T13:51:08.014Z,5.22
2022-09-10T13:52:12.281Z,5.68
2022-09-10T13:53:15.906Z,5.45
2022-09-10T13:54:28.525Z,5.30
2022-09-10T13:55:32.619Z,5.72
2022-09-10T13:56:36.303Z,5.93
2022-09-10T13:57:41.022Z,5.70
2022-09-10T13:58:47.073Z,6.30
2022-09-10T13:59:51.402Z,5.32
2022-09-10T14:00:55.535Z,5.40
2022-09-10T14:01:59.260Z,5.22
2022-09-10T14:03:26.329Z,6.00
2022-09-10T14:04:31.861Z,5.20
2022-09-10T14:05:37.571Z,5.28
2022-09-10T14:06:39.484Z,5.55
2022-09-10T14:07:43.895Z,5.88
2022-09-10T14:09:02.752Z,5.75
2022-09-10T14:10:06.427Z,5.40
2022-09-10T14:11:15.634Z,6.07
2022-09-10T14:12:23.063Z,5.15
2022-09-10T14:13:29.632Z,4.97
2022-09-10T14:14:37.739Z,5.50
2022-09-10T14:15:39.773Z,5.57
2022-09-10T14:16:45.337Z,5.63
2022-09-10T14:17:50.619Z,4.93
2022-09-10T14:18:58.542Z,5.15
2022-09-10T14:20:01.397Z,5.18
2022-09-10T14:21:04.725Z,5.43
2022-09-10T14:22:09.958Z,5.07
2022-09-10T14:23:16.052Z,5.07
2022-09-10T14:24:29.024Z,5.05
2022-09-10T14:25:33.390Z,6.07
2022-09-10T14:26:34.989Z,5.57
2022-09-10T14:27:40.377Z,5.10
2022-09-10T14:28:50.429Z,5.10
2022-09-10T14:29:56.150Z,4.70
2022-09-10T14:31:20.791Z,5.13
2022-09-10T14:32:31.795Z,4.40
2022-09-10T14:33:34.551Z,4.55
2022-09-10T14:34:37.129Z,5.10
2022-09-10T14:35:40.522Z,5.13
2022-09-10T14:36:43.124Z,4.22
2022-09-10T14:37:44.703Z,4.45
2022-09-10T14:38:55.651Z,5.50
2022-09-10T14:39:57.417Z,4.72
2022-09-10T14:41:05.538Z,4.65